sensor_id;sensor_type;location;lat;lon;timestamp;P1;durP1;ratioP1;P2;durP2;ratioP2
71975;SDS011;68326;52.124;5.424;2024-01-30T00:00:43;11.00;;;6.07;;
71975;SDS011;68326;52.124;5.424;2024-01-30T00:03:10;10.65;;;5.78;;
71975;SDS011;68326;52.124;5.424;2024-01-30T00:05:37;10.60;;;5.82;;
71975;SDS011;68326;52.124;5.424;2024-01-30T00:08:03;11.05;;;6.18;;
71975;SDS011;68326;52.124;5.424;2024-01-30T00:10:30;13.38;;;6.32;;
71975;SDS011;68326;52.124;5.424;2024-01-30T00:12:57;11.90;;;6.40;;
71975;SDS011;68326;52.124;5.424;2024-01-30T00:15:23;12.68;;;5.90;;
71975;SDS011;68326;52.124;5.424;2024-01-30T00:17:50;11.40;;;6.90;;
71975;SDS011;68326;52.124;5.424;2024-01-30T00:20:18;11.20;;;6.93;;
71975;SDS011;68326;52.124;5.424;2024-01-30T00:22:45;14.27;;;6.45;;
71975;SDS011;68326;52.124;5.424;2024-01-30T00:25:12;13.67;;;6.73;;
71975;SDS011;68326;52.124;5.424;2024-01-30T00:27:38;14.70;;;6.68;;
71975;SDS011;68326;52.124;5.424;2024-01-30T00:30:05;11.27;;;6.30;;
71975;SDS011;68326;52.124;5.424;2024-01-30T00:32:32;12.30;;;6.78;;
71975;SDS011;68326;52.124;5.424;2024-01-30T00:34:59;13.05;;;6.45;;
71975;SDS011;68326;52.124;5.424;2024-01-30T00:37:26;13.77;;;5.90;;
71975;SDS011;68326;52.124;5.424;2024-01-30T00:39:52;10.48;;;6.18;;
71975;SDS011;68326;52.124;5.424;2024-01-30T00:42:19;11.68;;;6.15;;
71975;SDS011;68326;52.124;5.424;2024-01-30T00:44:45;10.90;;;5.97;;
71975;SDS011;68326;52.124;5.424;2024-01-30T00:47:12;14.02;;;6.35;;
71975;SDS011;68326;52.124;5.424;2024-01-30T00:49:38;11.07;;;6.27;;
71975;SDS011;68326;52.124;5.424;2024-01-30T00:52:05;11.82;;;5.72;;
71975;SDS011;68326;52.124;5.424;2024-01-30T00:54:32;13.05;;;6.30;;
71975;SDS011;68326;52.124;5.424;2024-01-30T00:56:58;13.75;;;6.35;;
71975;SDS011;68326;52.124;5.424;2024-01-30T00:59:25;13.50;;;6.28;;
71975;SDS011;68326;52.124;5.424;2024-01-30T01:01:51;12.67;;;5.87;;
71975;SDS011;68326;52.124;5.424;2024-01-30T01:04:18;10.55;;;6.15;;
71975;SDS011;68326;52.124;5.424;2024-01-30T01:06:45;12.18;;;5.95;;
71975;SDS011;68326;52.124;5.424;2024-01-30T01:09:11;11.43;;;6.38;;
71975;SDS011;68326;52.124;5.424;2024-01-30T01:11:38;11.23;;;6.07;;
71975;SDS011;68326;52.124;5.424;2024-01-30T01:14:05;11.30;;;6.03;;
71975;SDS011;68326;52.124;5.424;2024-01-30T01:16:32;13.27;;;5.75;;
71975;SDS011;68326;52.124;5.424;2024-01-30T01:18:59;11.13;;;6.25;;
71975;SDS011;68326;52.124;5.424;2024-01-30T01:21:26;11.00;;;6.10;;
71975;SDS011;68326;52.124;5.424;2024-01-30T01:23:53;11.38;;;5.82;;
71975;SDS011;68326;52.124;5.424;2024-01-30T01:26:20;11.73;;;6.07;;
71975;SDS011;68326;52.124;5.424;2024-01-30T01:28:47;10.35;;;5.43;;
71975;SDS011;68326;52.124;5.424;2024-01-30T01:31:14;9.52;;;5.20;;
71975;SDS011;68326;52.124;5.424;2024-01-30T01:33:41;10.23;;;5.50;;
71975;SDS011;68326;52.124;5.424;2024-01-30T01:36:07;11.35;;;5.85;;
71975;SDS011;68326;52.124;5.424;2024-01-30T01:38:34;9.10;;;5.00;;
71975;SDS011;68326;52.124;5.424;2024-01-30T01:41:01;9.75;;;5.15;;
71975;SDS011;68326;52.124;5.424;2024-01-30T01:43:27;8.48;;;5.30;;
71975;SDS011;68326;52.124;5.424;2024-01-30T01:45:54;11.10;;;5.30;;
71975;SDS011;68326;52.124;5.424;2024-01-30T01:48:20;11.85;;;5.78;;
71975;SDS011;68326;52.124;5.424;2024-01-30T01:50:47;10.70;;;5.53;;
71975;SDS011;68326;52.124;5.424;2024-01-30T01:53:15;8.10;;;4.72;;
71975;SDS011;68326;52.124;5.424;2024-01-30T01:55:42;10.68;;;5.30;;
71975;SDS011;68326;52.124;5.424;2024-01-30T01:58:09;11.73;;;5.47;;
71975;SDS011;68326;52.124;5.424;2024-01-30T02:00:39;11.57;;;5.50;;
71975;SDS011;68326;52.124;5.424;2024-01-30T02:03:08;11.87;;;5.37;;
71975;SDS011;68326;52.124;5.424;2024-01-30T02:05:38;9.25;;;5.10;;
71975;SDS011;68326;52.124;5.424;2024-01-30T02:08:06;9.98;;;5.00;;
71975;SDS011;68326;52.124;5.424;2024-01-30T02:10:33;11.05;;;5.25;;
71975;SDS011;68326;52.124;5.424;2024-01-30T02:13:00;8.88;;;5.28;;
71975;SDS011;68326;52.124;5.424;2024-01-30T02:15:27;10.03;;;5.30;;
71975;SDS011;68326;52.124;5.424;2024-01-30T02:17:55;10.52;;;5.30;;
71975;SDS011;68326;52.124;5.424;2024-01-30T02:20:22;10.82;;;5.25;;
71975;SDS011;68326;52.124;5.424;2024-01-30T02:22:52;12.15;;;5.05;;
71975;SDS011;68326;52.124;5.424;2024-01-30T02:25:20;9.75;;;4.93;;
71975;SDS011;68326;52.124;5.424;2024-01-30T02:27:47;12.13;;;5.60;;
71975;SDS011;68326;52.124;5.424;2024-01-30T02:30:13;8.75;;;5.00;;
71975;SDS011;68326;52.124;5.424;2024-01-30T02:32:40;9.02;;;4.40;;
71975;SDS011;68326;52.124;5.424;2024-01-30T02:35:06;10.32;;;5.40;;
71975;SDS011;68326;52.124;5.424;2024-01-30T02:37:33;9.98;;;4.57;;
71975;SDS011;68326;52.124;5.424;2024-01-30T02:39:59;9.23;;;5.00;;
71975;SDS011;68326;52.124;5.424;2024-01-30T02:42:26;9.65;;;4.57;;
71975;SDS011;68326;52.124;5.424;2024-01-30T02:44:52;8.27;;;5.10;;
71975;SDS011;68326;52.124;5.424;2024-01-30T02:47:19;11.10;;;5.50;;
71975;SDS011;68326;52.124;5.424;2024-01-30T02:49:45;11.60;;;5.50;;
71975;SDS011;68326;52.124;5.424;2024-01-30T02:52:12;10.83;;;5.67;;
71975;SDS011;68326;52.124;5.424;2024-01-30T02:54:38;10.60;;;5.18;;
71975;SDS011;68326;52.124;5.424;2024-01-30T02:57:05;11.82;;;5.78;;
71975;SDS011;68326;52.124;5.424;2024-01-30T02:59:32;10.30;;;5.57;;
71975;SDS011;68326;52.124;5.424;2024-01-30T03:02:02;12.38;;;5.63;;
71975;SDS011;68326;52.124;5.424;2024-01-30T03:04:28;12.40;;;5.90;;
71975;SDS011;68326;52.124;5.424;2024-01-30T03:06:56;11.27;;;5.20;;
71975;SDS011;68326;52.124;5.424;2024-01-30T03:09:22;11.10;;;5.57;;
71975;SDS011;68326;52.124;5.424;2024-01-30T03:11:49;13.10;;;6.32;;
71975;SDS011;68326;52.124;5.424;2024-01-30T03:14:16;12.95;;;6.38;;
71975;SDS011;68326;52.124;5.424;2024-01-30T03:16:42;13.20;;;6.80;;
71975;SDS011;68326;52.124;5.424;2024-01-30T03:19:09;13.52;;;6.50;;
71975;SDS011;68326;52.124;5.424;2024-01-30T03:21:36;11.43;;;6.88;;
71975;SDS011;68326;52.124;5.424;2024-01-30T03:24:02;13.73;;;6.35;;
71975;SDS011;68326;52.124;5.424;2024-01-30T03:26:29;15.32;;;6.75;;
71975;SDS011;68326;52.124;5.424;2024-01-30T03:28:55;18.20;;;7.37;;
71975;SDS011;68326;52.124;5.424;2024-01-30T03:31:22;13.57;;;6.85;;
71975;SDS011;68326;52.124;5.424;2024-01-30T03:33:48;12.60;;;6.72;;
71975;SDS011;68326;52.124;5.424;2024-01-30T03:36:15;12.02;;;6.43;;
71975;SDS011;68326;52.124;5.424;2024-01-30T03:38:42;13.88;;;6.70;;
71975;SDS011;68326;52.124;5.424;2024-01-30T03:41:09;12.20;;;6.33;;
71975;SDS011;68326;52.124;5.424;2024-01-30T03:43:36;15.18;;;6.85;;
71975;SDS011;68326;52.124;5.424;2024-01-30T03:46:02;12.77;;;5.85;;
71975;SDS011;68326;52.124;5.424;2024-01-30T03:48:29;12.35;;;5.80;;
71975;SDS011;68326;52.124;5.424;2024-01-30T03:50:56;11.88;;;5.88;;
71975;SDS011;68326;52.124;5.424;2024-01-30T03:53:23;11.87;;;5.60;;
71975;SDS011;68326;52.124;5.424;2024-01-30T03:55:49;9.10;;;4.95;;
71975;SDS011;68326;52.124;5.424;2024-01-30T03:58:16;11.57;;;5.18;;
71975;SDS011;68326;52.124;5.424;2024-01-30T04:00:43;10.80;;;4.90;;
71975;SDS011;68326;52.124;5.424;2024-01-30T04:03:09;7.88;;;4.43;;
71975;SDS011;68326;52.124;5.424;2024-01-30T04:05:36;9.43;;;4.83;;
71975;SDS011;68326;52.124;5.424;2024-01-30T04:08:02;10.07;;;5.20;;
71975;SDS011;68326;52.124;5.424;2024-01-30T04:10:29;10.70;;;4.72;;
71975;SDS011;68326;52.124;5.424;2024-01-30T04:12:56;9.35;;;4.50;;
71975;SDS011;68326;52.124;5.424;2024-01-30T04:15:22;7.78;;;3.88;;
71975;SDS011;68326;52.124;5.424;2024-01-30T04:17:49;7.93;;;3.97;;
71975;SDS011;68326;52.124;5.424;2024-01-30T04:20:15;10.02;;;4.32;;
71975;SDS011;68326;52.124;5.424;2024-01-30T04:22:43;8.35;;;4.30;;
71975;SDS011;68326;52.124;5.424;2024-01-30T04:25:11;8.90;;;4.05;;
71975;SDS011;68326;52.124;5.424;2024-01-30T04:27:38;14.55;;;4.50;;
71975;SDS011;68326;52.124;5.424;2024-01-30T04:30:04;7.93;;;3.80;;
71975;SDS011;68326;52.124;5.424;2024-01-30T04:32:32;9.10;;;4.47;;
71975;SDS011;68326;52.124;5.424;2024-01-30T04:34:59;6.18;;;4.00;;
71975;SDS011;68326;52.124;5.424;2024-01-30T04:37:25;10.00;;;4.05;;
71975;SDS011;68326;52.124;5.424;2024-01-30T04:39:52;7.30;;;4.05;;
71975;SDS011;68326;52.124;5.424;2024-01-30T04:42:18;9.50;;;4.67;;
71975;SDS011;68326;52.124;5.424;2024-01-30T04:44:45;7.57;;;4.13;;
71975;SDS011;68326;52.124;5.424;2024-01-30T04:47:11;11.52;;;4.22;;
71975;SDS011;68326;52.124;5.424;2024-01-30T04:49:38;8.20;;;3.95;;
71975;SDS011;68326;52.124;5.424;2024-01-30T04:52:08;8.50;;;4.43;;
71975;SDS011;68326;52.124;5.424;2024-01-30T04:54:35;8.50;;;3.77;;
71975;SDS011;68326;52.124;5.424;2024-01-30T04:57:02;8.98;;;4.22;;
71975;SDS011;68326;52.124;5.424;2024-01-30T04:59:29;6.85;;;3.78;;
71975;SDS011;68326;52.124;5.424;2024-01-30T05:01:55;8.30;;;4.32;;
71975;SDS011;68326;52.124;5.424;2024-01-30T05:04:22;8.10;;;4.10;;
71975;SDS011;68326;52.124;5.424;2024-01-30T05:06:48;10.27;;;4.30;;
71975;SDS011;68326;52.124;5.424;2024-01-30T05:09:15;7.47;;;4.13;;
71975;SDS011;68326;52.124;5.424;2024-01-30T05:11:41;7.93;;;4.20;;
71975;SDS011;68326;52.124;5.424;2024-01-30T05:14:08;8.57;;;4.28;;
71975;SDS011;68326;52.124;5.424;2024-01-30T05:16:35;8.07;;;4.43;;
71975;SDS011;68326;52.124;5.424;2024-01-30T05:19:01;9.23;;;4.10;;
71975;SDS011;68326;52.124;5.424;2024-01-30T05:21:29;8.73;;;3.88;;
71975;SDS011;68326;52.124;5.424;2024-01-30T05:23:55;7.93;;;4.00;;
71975;SDS011;68326;52.124;5.424;2024-01-30T05:26:22;8.43;;;4.10;;
71975;SDS011;68326;52.124;5.424;2024-01-30T05:28:49;12.07;;;4.03;;
71975;SDS011;68326;52.124;5.424;2024-01-30T05:31:15;12.40;;;4.70;;
71975;SDS011;68326;52.124;5.424;2024-01-30T05:33:42;7.93;;;4.10;;
71975;SDS011;68326;52.124;5.424;2024-01-30T05:36:11;10.20;;;4.28;;
71975;SDS011;68326;52.124;5.424;2024-01-30T05:38:39;9.38;;;4.53;;
71975;SDS011;68326;52.124;5.424;2024-01-30T05:41:06;6.88;;;3.95;;
71975;SDS011;68326;52.124;5.424;2024-01-30T05:43:32;7.23;;;4.00;;
71975;SDS011;68326;52.124;5.424;2024-01-30T05:45:59;7.70;;;3.95;;
71975;SDS011;68326;52.124;5.424;2024-01-30T05:48:26;9.18;;;4.20;;
71975;SDS011;68326;52.124;5.424;2024-01-30T05:50:52;8.10;;;4.07;;
71975;SDS011;68326;52.124;5.424;2024-01-30T05:53:19;8.70;;;3.92;;
71975;SDS011;68326;52.124;5.424;2024-01-30T05:55:45;7.83;;;4.00;;
71975;SDS011;68326;52.124;5.424;2024-01-30T05:58:12;10.40;;;4.35;;
71975;SDS011;68326;52.124;5.424;2024-01-30T06:00:38;8.13;;;3.95;;
71975;SDS011;68326;52.124;5.424;2024-01-30T06:03:05;9.38;;;4.40;;
71975;SDS011;68326;52.124;5.424;2024-01-30T06:05:31;7.85;;;4.10;;
71975;SDS011;68326;52.124;5.424;2024-01-30T06:07:58;8.87;;;3.87;;
71975;SDS011;68326;52.124;5.424;2024-01-30T06:10:25;7.78;;;3.95;;
71975;SDS011;68326;52.124;5.424;2024-01-30T06:12:51;6.57;;;3.72;;
71975;SDS011;68326;52.124;5.424;2024-01-30T06:15:18;7.72;;;3.70;;
71975;SDS011;68326;52.124;5.424;2024-01-30T06:17:44;7.65;;;3.85;;
71975;SDS011;68326;52.124;5.424;2024-01-30T06:20:11;9.97;;;4.63;;
71975;SDS011;68326;52.124;5.424;2024-01-30T06:22:37;9.70;;;4.30;;
71975;SDS011;68326;52.124;5.424;2024-01-30T06:25:04;7.10;;;4.28;;
71975;SDS011;68326;52.124;5.424;2024-01-30T06:27:31;6.70;;;3.80;;
71975;SDS011;68326;52.124;5.424;2024-01-30T06:29:57;8.43;;;4.15;;
71975;SDS011;68326;52.124;5.424;2024-01-30T06:32:24;9.13;;;4.40;;
71975;SDS011;68326;52.124;5.424;2024-01-30T06:34:51;13.63;;;4.55;;
71975;SDS011;68326;52.124;5.424;2024-01-30T06:37:17;7.70;;;4.13;;
71975;SDS011;68326;52.124;5.424;2024-01-30T06:39:44;9.05;;;4.20;;
71975;SDS011;68326;52.124;5.424;2024-01-30T06:42:10;6.95;;;3.97;;
71975;SDS011;68326;52.124;5.424;2024-01-30T06:44:38;8.70;;;4.10;;
71975;SDS011;68326;52.124;5.424;2024-01-30T06:47:04;8.63;;;4.10;;
71975;SDS011;68326;52.124;5.424;2024-01-30T06:49:31;10.27;;;4.55;;
71975;SDS011;68326;52.124;5.424;2024-01-30T06:51:57;7.78;;;3.72;;
71975;SDS011;68326;52.124;5.424;2024-01-30T06:54:24;7.82;;;4.18;;
71975;SDS011;68326;52.124;5.424;2024-01-30T06:56:51;10.20;;;4.00;;
71975;SDS011;68326;52.124;5.424;2024-01-30T06:59:17;6.93;;;3.65;;
71975;SDS011;68326;52.124;5.424;2024-01-30T07:01:44;7.35;;;3.97;;
71975;SDS011;68326;52.124;5.424;2024-01-30T07:04:10;7.65;;;3.90;;
71975;SDS011;68326;52.124;5.424;2024-01-30T07:06:37;8.18;;;4.10;;
71975;SDS011;68326;52.124;5.424;2024-01-30T07:09:04;6.33;;;3.60;;
71975;SDS011;68326;52.124;5.424;2024-01-30T07:11:31;8.45;;;4.10;;
71975;SDS011;68326;52.124;5.424;2024-01-30T07:13:58;9.70;;;4.20;;
71975;SDS011;68326;52.124;5.424;2024-01-30T07:16:24;10.65;;;3.67;;
71975;SDS011;68326;52.124;5.424;2024-01-30T07:18:51;8.85;;;3.88;;
71975;SDS011;68326;52.124;5.424;2024-01-30T07:21:18;9.10;;;4.17;;
71975;SDS011;68326;52.124;5.424;2024-01-30T07:23:45;7.70;;;3.88;;
71975;SDS011;68326;52.124;5.424;2024-01-30T07:26:11;7.05;;;3.47;;
71975;SDS011;68326;52.124;5.424;2024-01-30T07:28:38;8.70;;;3.83;;
71975;SDS011;68326;52.124;5.424;2024-01-30T07:31:04;7.53;;;3.80;;
71975;SDS011;68326;52.124;5.424;2024-01-30T07:33:31;7.90;;;4.00;;
71975;SDS011;68326;52.124;5.424;2024-01-30T07:35:58;8.68;;;3.42;;
71975;SDS011;68326;52.124;5.424;2024-01-30T07:38:24;6.95;;;3.63;;
71975;SDS011;68326;52.124;5.424;2024-01-30T07:40:51;9.80;;;4.65;;
71975;SDS011;68326;52.124;5.424;2024-01-30T07:43:18;7.82;;;3.45;;
71975;SDS011;68326;52.124;5.424;2024-01-30T07:45:46;8.50;;;4.37;;
71975;SDS011;68326;52.124;5.424;2024-01-30T07:48:12;8.15;;;3.95;;
71975;SDS011;68326;52.124;5.424;2024-01-30T07:50:40;9.60;;;4.00;;
71975;SDS011;68326;52.124;5.424;2024-01-30T07:53:07;7.15;;;3.80;;
71975;SDS011;68326;52.124;5.424;2024-01-30T07:55:33;9.05;;;3.80;;
71975;SDS011;68326;52.124;5.424;2024-01-30T07:58:00;8.53;;;3.83;;
71975;SDS011;68326;52.124;5.424;2024-01-30T08:00:27;8.23;;;3.80;;
71975;SDS011;68326;52.124;5.424;2024-01-30T08:02:55;7.97;;;4.00;;
71975;SDS011;68326;52.124;5.424;2024-01-30T08:05:22;8.55;;;3.92;;
71975;SDS011;68326;52.124;5.424;2024-01-30T08:07:50;7.80;;;4.10;;
71975;SDS011;68326;52.124;5.424;2024-01-30T08:10:16;6.17;;;3.97;;
71975;SDS011;68326;52.124;5.424;2024-01-30T08:12:46;6.80;;;3.30;;
71975;SDS011;68326;52.124;5.424;2024-01-30T08:15:13;6.60;;;4.28;;
71975;SDS011;68326;52.124;5.424;2024-01-30T08:17:40;8.23;;;3.72;;
71975;SDS011;68326;52.124;5.424;2024-01-30T08:20:06;7.80;;;3.92;;
71975;SDS011;68326;52.124;5.424;2024-01-30T08:22:35;9.43;;;3.83;;
71975;SDS011;68326;52.124;5.424;2024-01-30T08:25:01;7.97;;;4.05;;
71975;SDS011;68326;52.124;5.424;2024-01-30T08:27:28;8.20;;;3.58;;
71975;SDS011;68326;52.124;5.424;2024-01-30T08:29:55;5.65;;;3.17;;
71975;SDS011;68326;52.124;5.424;2024-01-30T08:32:21;8.45;;;3.85;;
71975;SDS011;68326;52.124;5.424;2024-01-30T08:34:48;8.67;;;4.07;;
71975;SDS011;68326;52.124;5.424;2024-01-30T08:37:14;9.00;;;3.92;;
71975;SDS011;68326;52.124;5.424;2024-01-30T08:39:43;8.80;;;3.85;;
71975;SDS011;68326;52.124;5.424;2024-01-30T08:42:10;7.47;;;3.78;;
71975;SDS011;68326;52.124;5.424;2024-01-30T08:44:37;12.75;;;4.20;;
71975;SDS011;68326;52.124;5.424;2024-01-30T08:47:04;9.07;;;4.40;;
71975;SDS011;68326;52.124;5.424;2024-01-30T08:49:32;8.82;;;3.50;;
71975;SDS011;68326;52.124;5.424;2024-01-30T08:51:58;9.10;;;4.03;;
71975;SDS011;68326;52.124;5.424;2024-01-30T08:54:25;7.60;;;3.67;;
71975;SDS011;68326;52.124;5.424;2024-01-30T08:56:52;17.70;;;4.20;;
71975;SDS011;68326;52.124;5.424;2024-01-30T08:59:19;7.33;;;3.67;;
71975;SDS011;68326;52.124;5.424;2024-01-30T09:01:45;10.00;;;4.00;;
71975;SDS011;68326;52.124;5.424;2024-01-30T09:04:28;8.60;;;4.07;;
71975;SDS011;68326;52.124;5.424;2024-01-30T09:06:55;9.88;;;4.20;;
71975;SDS011;68326;52.124;5.424;2024-01-30T09:09:22;10.85;;;4.00;;
71975;SDS011;68326;52.124;5.424;2024-01-30T09:11:48;10.70;;;3.93;;
71975;SDS011;68326;52.124;5.424;2024-01-30T09:14:15;7.10;;;3.65;;
71975;SDS011;68326;52.124;5.424;2024-01-30T09:16:41;9.73;;;3.55;;
71975;SDS011;68326;52.124;5.424;2024-01-30T09:19:08;8.23;;;3.13;;
71975;SDS011;68326;52.124;5.424;2024-01-30T09:21:34;9.68;;;4.32;;
71975;SDS011;68326;52.124;5.424;2024-01-30T09:24:02;8.60;;;4.07;;
71975;SDS011;68326;52.124;5.424;2024-01-30T09:26:30;8.20;;;4.22;;
71975;SDS011;68326;52.124;5.424;2024-01-30T09:28:56;9.73;;;4.03;;
71975;SDS011;68326;52.124;5.424;2024-01-30T09:31:24;10.27;;;4.05;;
71975;SDS011;68326;52.124;5.424;2024-01-30T09:33:51;10.23;;;3.65;;
71975;SDS011;68326;52.124;5.424;2024-01-30T09:36:20;9.73;;;3.87;;
71975;SDS011;68326;52.124;5.424;2024-01-30T09:38:46;10.55;;;3.63;;
71975;SDS011;68326;52.124;5.424;2024-01-30T09:41:13;10.45;;;3.50;;
71975;SDS011;68326;52.124;5.424;2024-01-30T09:43:41;9.07;;;4.03;;
71975;SDS011;68326;52.124;5.424;2024-01-30T09:46:14;8.40;;;4.38;;
71975;SDS011;68326;52.124;5.424;2024-01-30T09:48:45;5.93;;;2.60;;
71975;SDS011;68326;52.124;5.424;2024-01-30T09:51:13;6.65;;;3.63;;
71975;SDS011;68326;52.124;5.424;2024-01-30T09:53:41;8.40;;;3.80;;
71975;SDS011;68326;52.124;5.424;2024-01-30T09:56:09;10.35;;;3.65;;
71975;SDS011;68326;52.124;5.424;2024-01-30T09:58:39;8.18;;;4.10;;
71975;SDS011;68326;52.124;5.424;2024-01-30T10:01:06;8.13;;;3.70;;
71975;SDS011;68326;52.124;5.424;2024-01-30T10:03:33;6.50;;;3.75;;
71975;SDS011;68326;52.124;5.424;2024-01-30T10:06:00;9.70;;;3.95;;
71975;SDS011;68326;52.124;5.424;2024-01-30T10:08:27;10.07;;;4.00;;
71975;SDS011;68326;52.124;5.424;2024-01-30T10:10:56;10.30;;;4.18;;
71975;SDS011;68326;52.124;5.424;2024-01-30T10:13:25;9.33;;;3.20;;
71975;SDS011;68326;52.124;5.424;2024-01-30T10:15:52;10.57;;;3.97;;
71975;SDS011;68326;52.124;5.424;2024-01-30T10:18:19;9.77;;;3.95;;
71975;SDS011;68326;52.124;5.424;2024-01-30T10:20:46;8.93;;;4.30;;
71975;SDS011;68326;52.124;5.424;2024-01-30T10:23:12;10.10;;;4.13;;
71975;SDS011;68326;52.124;5.424;2024-01-30T10:25:39;8.83;;;3.67;;
71975;SDS011;68326;52.124;5.424;2024-01-30T10:28:06;10.55;;;4.30;;
71975;SDS011;68326;52.124;5.424;2024-01-30T10:30:32;8.40;;;3.70;;
71975;SDS011;68326;52.124;5.424;2024-01-30T10:32:59;10.32;;;3.95;;
71975;SDS011;68326;52.124;5.424;2024-01-30T10:35:25;9.98;;;4.13;;
71975;SDS011;68326;52.124;5.424;2024-01-30T10:37:52;8.33;;;3.80;;
71975;SDS011;68326;52.124;5.424;2024-01-30T10:40:23;6.70;;;3.90;;
71975;SDS011;68326;52.124;5.424;2024-01-30T10:42:54;6.28;;;3.92;;
71975;SDS011;68326;52.124;5.424;2024-01-30T10:45:22;6.00;;;3.33;;
71975;SDS011;68326;52.124;5.424;2024-01-30T10:47:54;9.60;;;4.80;;
71975;SDS011;68326;52.124;5.424;2024-01-30T10:50:24;10.33;;;3.87;;
71975;SDS011;68326;52.124;5.424;2024-01-30T10:52:52;7.43;;;3.92;;
71975;SDS011;68326;52.124;5.424;2024-01-30T10:55:21;9.18;;;4.55;;
71975;SDS011;68326;52.124;5.424;2024-01-30T10:57:49;8.38;;;3.55;;
71975;SDS011;68326;52.124;5.424;2024-01-30T11:00:16;8.82;;;3.90;;
71975;SDS011;68326;52.124;5.424;2024-01-30T11:02:48;6.30;;;2.90;;
71975;SDS011;68326;52.124;5.424;2024-01-30T11:05:22;8.65;;;3.72;;
71975;SDS011;68326;52.124;5.424;2024-01-30T11:07:54;8.25;;;3.80;;
71975;SDS011;68326;52.124;5.424;2024-01-30T11:10:21;6.32;;;3.22;;
71975;SDS011;68326;52.124;5.424;2024-01-30T11:12:51;12.10;;;3.78;;
71975;SDS011;68326;52.124;5.424;2024-01-30T11:15:18;10.03;;;3.53;;
71975;SDS011;68326;52.124;5.424;2024-01-30T11:17:45;7.93;;;3.35;;
71975;SDS011;68326;52.124;5.424;2024-01-30T11:20:30;7.60;;;3.10;;
71975;SDS011;68326;52.124;5.424;2024-01-30T11:22:57;11.00;;;3.40;;
71975;SDS011;68326;52.124;5.424;2024-01-30T11:25:25;9.82;;;2.97;;
71975;SDS011;68326;52.124;5.424;2024-01-30T11:27:53;7.40;;;3.27;;
71975;SDS011;68326;52.124;5.424;2024-01-30T11:30:21;5.57;;;3.40;;
71975;SDS011;68326;52.124;5.424;2024-01-30T11:33:01;7.32;;;3.03;;
71975;SDS011;68326;52.124;5.424;2024-01-30T11:35:34;5.82;;;2.83;;
71975;SDS011;68326;52.124;5.424;2024-01-30T11:38:02;4.75;;;2.10;;
71975;SDS011;68326;52.124;5.424;2024-01-30T11:40:30;3.90;;;1.10;;
71975;SDS011;68326;52.124;5.424;2024-01-30T11:42:58;5.35;;;1.42;;
71975;SDS011;68326;52.124;5.424;2024-01-30T11:45:26;2.80;;;1.00;;
71975;SDS011;68326;52.124;5.424;2024-01-30T11:47:53;2.90;;;0.82;;
71975;SDS011;68326;52.124;5.424;2024-01-30T11:50:21;2.17;;;0.70;;
71975;SDS011;68326;52.124;5.424;2024-01-30T11:52:48;4.23;;;0.90;;
71975;SDS011;68326;52.124;5.424;2024-01-30T11:55:14;4.30;;;0.68;;
71975;SDS011;68326;52.124;5.424;2024-01-30T11:57:41;3.45;;;1.17;;
71975;SDS011;68326;52.124;5.424;2024-01-30T12:00:14;4.72;;;0.57;;
71975;SDS011;68326;52.124;5.424;2024-01-30T12:02:42;2.28;;;0.50;;
71975;SDS011;68326;52.124;5.424;2024-01-30T12:05:09;2.90;;;0.30;;
71975;SDS011;68326;52.124;5.424;2024-01-30T12:07:36;2.83;;;0.20;;
71975;SDS011;68326;52.124;5.424;2024-01-30T12:10:03;3.42;;;0.82;;
71975;SDS011;68326;52.124;5.424;2024-01-30T12:12:31;4.30;;;0.30;;
71975;SDS011;68326;52.124;5.424;2024-01-30T12:14:58;2.15;;;0.40;;
71975;SDS011;68326;52.124;5.424;2024-01-30T12:17:29;1.53;;;0.30;;
71975;SDS011;68326;52.124;5.424;2024-01-30T12:20:30;2.42;;;0.30;;
71975;SDS011;68326;52.124;5.424;2024-01-30T12:22:49;1.92;;;0.40;;
71975;SDS011;68326;52.124;5.424;2024-01-30T12:25:17;4.43;;;0.70;;
71975;SDS011;68326;52.124;5.424;2024-01-30T12:27:52;2.70;;;0.98;;
71975;SDS011;68326;52.124;5.424;2024-01-30T12:30:19;2.00;;;0.60;;
71975;SDS011;68326;52.124;5.424;2024-01-30T12:32:50;4.63;;;1.00;;
71975;SDS011;68326;52.124;5.424;2024-01-30T12:35:18;3.75;;;0.90;;
71975;SDS011;68326;52.124;5.424;2024-01-30T12:37:47;7.05;;;1.40;;
71975;SDS011;68326;52.124;5.424;2024-01-30T12:40:15;3.13;;;1.30;;
71975;SDS011;68326;52.124;5.424;2024-01-30T12:42:43;3.07;;;0.90;;
71975;SDS011;68326;52.124;5.424;2024-01-30T12:45:13;3.95;;;0.77;;
71975;SDS011;68326;52.124;5.424;2024-01-30T12:47:41;3.35;;;0.80;;
71975;SDS011;68326;52.124;5.424;2024-01-30T12:50:08;2.53;;;0.88;;
71975;SDS011;68326;52.124;5.424;2024-01-30T12:52:35;2.40;;;0.63;;
71975;SDS011;68326;52.124;5.424;2024-01-30T12:55:02;1.73;;;0.70;;
71975;SDS011;68326;52.124;5.424;2024-01-30T12:57:30;2.25;;;0.75;;
71975;SDS011;68326;52.124;5.424;2024-01-30T12:59:56;4.82;;;0.98;;
71975;SDS011;68326;52.124;5.424;2024-01-30T13:02:23;3.47;;;0.60;;
71975;SDS011;68326;52.124;5.424;2024-01-30T13:04:50;3.25;;;0.80;;
71975;SDS011;68326;52.124;5.424;2024-01-30T13:07:17;4.50;;;0.57;;
71975;SDS011;68326;52.124;5.424;2024-01-30T13:09:43;4.65;;;0.60;;
71975;SDS011;68326;52.124;5.424;2024-01-30T13:12:10;2.40;;;0.50;;
71975;SDS011;68326;52.124;5.424;2024-01-30T13:14:36;3.72;;;0.60;;
71975;SDS011;68326;52.124;5.424;2024-01-30T13:17:03;1.75;;;0.30;;
71975;SDS011;68326;52.124;5.424;2024-01-30T13:19:30;2.50;;;0.20;;
71975;SDS011;68326;52.124;5.424;2024-01-30T13:21:57;0.77;;;0.28;;
71975;SDS011;68326;52.124;5.424;2024-01-30T13:24:24;3.58;;;0.40;;
71975;SDS011;68326;52.124;5.424;2024-01-30T13:26:50;2.13;;;0.30;;
71975;SDS011;68326;52.124;5.424;2024-01-30T13:29:17;1.70;;;0.50;;
71975;SDS011;68326;52.124;5.424;2024-01-30T13:31:44;1.23;;;0.20;;
71975;SDS011;68326;52.124;5.424;2024-01-30T13:34:12;4.50;;;0.20;;
71975;SDS011;68326;52.124;5.424;2024-01-30T13:36:40;2.65;;;0.20;;
71975;SDS011;68326;52.124;5.424;2024-01-30T13:39:07;1.38;;;0.20;;
71975;SDS011;68326;52.124;5.424;2024-01-30T13:41:36;2.47;;;0.30;;
71975;SDS011;68326;52.124;5.424;2024-01-30T13:44:03;1.93;;;0.30;;
71975;SDS011;68326;52.124;5.424;2024-01-30T13:46:30;3.55;;;0.70;;
71975;SDS011;68326;52.124;5.424;2024-01-30T13:48:57;1.45;;;0.20;;
71975;SDS011;68326;52.124;5.424;2024-01-30T13:51:24;1.90;;;0.13;;
71975;SDS011;68326;52.124;5.424;2024-01-30T13:53:51;1.63;;;0.20;;
71975;SDS011;68326;52.124;5.424;2024-01-30T13:56:17;1.90;;;0.20;;
71975;SDS011;68326;52.124;5.424;2024-01-30T13:58:45;1.30;;;0.10;;
71975;SDS011;68326;52.124;5.424;2024-01-30T14:01:11;0.95;;;0.10;;
71975;SDS011;68326;52.124;5.424;2024-01-30T14:03:38;0.55;;;0.10;;
71975;SDS011;68326;52.124;5.424;2024-01-30T14:06:05;3.60;;;0.20;;
71975;SDS011;68326;52.124;5.424;2024-01-30T14:08:31;3.03;;;0.20;;
71975;SDS011;68326;52.124;5.424;2024-01-30T14:10:58;1.30;;;0.10;;
71975;SDS011;68326;52.124;5.424;2024-01-30T14:13:25;2.25;;;0.22;;
71975;SDS011;68326;52.124;5.424;2024-01-30T14:15:52;1.77;;;0.20;;
71975;SDS011;68326;52.124;5.424;2024-01-30T14:18:19;0.63;;;0.10;;
71975;SDS011;68326;52.124;5.424;2024-01-30T14:20:46;0.77;;;0.00;;
71975;SDS011;68326;52.124;5.424;2024-01-30T14:23:13;1.23;;;0.20;;
71975;SDS011;68326;52.124;5.424;2024-01-30T14:25:39;1.75;;;0.10;;
71975;SDS011;68326;52.124;5.424;2024-01-30T14:28:06;1.70;;;0.20;;
71975;SDS011;68326;52.124;5.424;2024-01-30T14:30:33;1.27;;;0.43;;
71975;SDS011;68326;52.124;5.424;2024-01-30T14:33:00;1.50;;;0.20;;
71975;SDS011;68326;52.124;5.424;2024-01-30T14:35:26;1.65;;;0.10;;
71975;SDS011;68326;52.124;5.424;2024-01-30T14:37:53;1.52;;;0.10;;
71975;SDS011;68326;52.124;5.424;2024-01-30T14:40:20;2.35;;;0.30;;
71975;SDS011;68326;52.124;5.424;2024-01-30T14:42:47;1.63;;;0.22;;